createdAt,value
2018-06-01T00:00:46.434Z,1.80
2018-06-01T00:03:13.889Z,1.70
2018-06-01T00:05:41.400Z,1.57
2018-06-01T00:08:08.919Z,1.93
2018-06-01T00:10:36.419Z,1.50
2018-06-01T00:13:03.941Z,1.80
2018-06-01T00:15:31.458Z,1.60
2018-06-01T00:17:58.978Z,1.40
2018-06-01T00:20:26.484Z,1.73
2018-06-01T00:22:54.006Z,1.60
2018-06-01T00:25:21.499Z,1.50
2018-06-01T00:27:48.998Z,1.90
2018-06-01T00:30:16.514Z,1.80
2018-06-01T00:32:44.021Z,1.47
2018-06-01T00:35:11.558Z,1.30
2018-06-01T00:37:40.198Z,1.73
2018-06-01T00:40:07.729Z,1.77
2018-06-01T00:42:35.227Z,1.93
2018-06-01T00:45:02.723Z,1.80
2018-06-01T00:47:31.004Z,1.80
2018-06-01T00:49:59.268Z,1.90
2018-06-01T00:52:27.541Z,2.00
2018-06-01T00:55:07.656Z,1.80
2018-06-01T00:57:35.174Z,2.07
2018-06-01T01:00:02.692Z,2.30
2018-06-01T01:02:30.192Z,2.00
2018-06-01T01:04:57.716Z,2.03
2018-06-01T01:07:25.219Z,2.40
2018-06-01T01:09:52.737Z,2.13
2018-06-01T01:12:20.236Z,2.40
2018-06-01T01:14:47.791Z,1.93
2018-06-01T01:17:18.754Z,2.70
2018-06-01T01:19:46.250Z,2.53
2018-06-01T01:22:13.763Z,2.80
2018-06-01T01:24:41.269Z,1.97
2018-06-01T01:27:08.801Z,2.17
2018-06-01T01:29:36.302Z,2.13
2018-06-01T01:32:03.842Z,2.10
2018-06-01T01:34:31.330Z,2.13
2018-06-01T01:36:59.599Z,1.80
2018-06-01T01:39:27.114Z,1.43
2018-06-01T01:41:54.610Z,2.07
2018-06-01T01:44:22.146Z,2.53
2018-06-01T01:46:49.656Z,2.30
2018-06-01T01:49:17.949Z,2.00
2018-06-01T01:51:45.471Z,2.30
2018-06-01T01:54:12.997Z,2.27
2018-06-01T01:56:40.502Z,2.30
2018-06-01T01:59:08.782Z,2.50
2018-06-01T02:01:37.074Z,2.10
2018-06-01T02:04:04.579Z,1.90
2018-06-01T02:06:32.099Z,2.30
2018-06-01T02:08:59.607Z,1.93
2018-06-01T02:11:27.330Z,2.37
2018-06-01T02:13:54.850Z,2.53
2018-06-01T02:16:22.343Z,2.43
2018-06-01T02:18:49.856Z,2.30
2018-06-01T02:21:17.361Z,1.80
2018-06-01T02:23:44.855Z,2.60
2018-06-01T02:26:12.375Z,2.17
2018-06-01T02:28:39.861Z,1.90
2018-06-01T02:31:07.395Z,2.17
2018-06-01T02:33:34.904Z,2.80
2018-06-01T02:36:02.406Z,2.10
2018-06-01T02:38:30.689Z,2.20
2018-06-01T02:40:58.195Z,2.47
2018-06-01T02:43:25.713Z,2.33
2018-06-01T02:45:53.433Z,2.60
2018-06-01T02:48:20.936Z,2.50
2018-06-01T02:50:48.454Z,2.10
2018-06-01T02:53:15.959Z,2.47
2018-06-01T02:55:43.492Z,2.67
2018-06-01T02:58:11.774Z,1.87
2018-06-01T03:00:40.926Z,2.90
2018-06-01T03:03:08.426Z,2.17
2018-06-01T03:05:35.921Z,2.17
2018-06-01T03:08:03.453Z,2.50
2018-06-01T03:10:31.722Z,2.17
2018-06-01T03:13:00.015Z,2.47
2018-06-01T03:15:27.595Z,1.90
2018-06-01T03:17:55.112Z,2.57
2018-06-01T03:20:22.637Z,2.67
2018-06-01T03:22:50.141Z,3.30
2018-06-01T03:25:18.434Z,2.40
2018-06-01T03:27:45.945Z,2.70
2018-06-01T03:30:13.690Z,2.93
2018-06-01T03:32:41.189Z,2.60
2018-06-01T03:35:08.685Z,3.00
2018-06-01T03:37:36.203Z,2.93
2018-06-01T03:40:03.694Z,3.40
2018-06-01T03:42:31.210Z,3.00
2018-06-01T03:44:58.747Z,3.50
2018-06-01T03:47:26.243Z,3.67
2018-06-01T03:49:53.767Z,3.30
2018-06-01T03:52:22.021Z,3.47
2018-06-01T03:54:49.537Z,3.73
2018-06-01T03:57:17.018Z,3.90
2018-06-01T03:59:45.311Z,3.97
2018-06-01T04:02:12.810Z,4.43
2018-06-01T04:04:40.307Z,4.40
2018-06-01T04:07:08.587Z,4.80
2018-06-01T04:09:36.850Z,4.43
2018-06-01T04:12:04.370Z,4.80
2018-06-01T04:14:32.734Z,4.97
2018-06-01T04:17:00.251Z,4.67
2018-06-01T04:19:27.750Z,5.50
2018-06-01T04:21:55.246Z,5.03
2018-06-01T04:24:22.765Z,4.80
2018-06-01T04:26:50.289Z,4.63
2018-06-01T04:29:17.811Z,4.80
2018-06-01T04:31:45.311Z,4.00
2018-06-01T04:34:12.815Z,3.90
2018-06-01T04:36:40.318Z,4.50
2018-06-01T04:39:07.850Z,4.00
2018-06-01T04:41:35.406Z,3.60
2018-06-01T04:44:02.891Z,3.83
2018-06-01T04:46:30.384Z,3.20
2018-06-01T04:48:58.669Z,3.87
2018-06-01T04:51:26.934Z,3.50
2018-06-01T04:53:55.224Z,3.80
2018-06-01T04:56:23.528Z,3.20
2018-06-01T04:58:51.021Z,3.80
2018-06-01T05:01:18.774Z,3.70
2018-06-01T05:03:46.278Z,3.43
2018-06-01T05:06:14.552Z,3.50
2018-06-01T05:08:42.822Z,4.13
2018-06-01T05:11:10.414Z,3.80
2018-06-01T05:13:37.912Z,3.87
2018-06-01T05:16:05.428Z,4.40
2018-06-01T05:18:32.949Z,3.63
2018-06-01T05:21:00.447Z,3.57
2018-06-01T05:23:27.968Z,4.17
2018-06-01T05:25:55.458Z,3.63
2018-06-01T05:28:22.974Z,3.80
2018-06-01T05:30:50.470Z,3.57
2018-06-01T05:33:18.743Z,4.33
2018-06-01T05:35:47.023Z,4.30
2018-06-01T05:38:15.365Z,3.77
2018-06-01T05:40:42.892Z,3.70
2018-06-01T05:43:10.389Z,3.80
2018-06-01T05:45:37.899Z,4.27
2018-06-01T05:48:05.421Z,3.70
2018-06-01T05:50:32.925Z,3.80
2018-06-01T05:53:00.435Z,4.20
2018-06-01T05:55:27.936Z,4.03
2018-06-01T05:57:55.454Z,4.33
2018-06-01T06:00:22.959Z,3.80
2018-06-01T06:02:50.462Z,3.33
2018-06-01T06:05:17.973Z,3.80
2018-06-01T06:07:45.469Z,4.47
2018-06-01T06:10:12.990Z,3.90
2018-06-01T06:12:40.505Z,3.90
2018-06-01T06:15:08.004Z,4.70
2018-06-01T06:17:35.522Z,4.40
2018-06-01T06:20:03.024Z,4.80
2018-06-01T06:22:30.580Z,3.67
2018-06-01T06:24:58.845Z,4.33
2018-06-01T06:27:27.132Z,5.00
2018-06-01T06:29:55.387Z,4.60
2018-06-01T06:32:22.913Z,3.83
2018-06-01T06:34:50.451Z,4.30
2018-06-01T06:37:17.942Z,4.60
2018-06-01T06:39:45.472Z,4.20
2018-06-01T06:42:12.966Z,4.10
2018-06-01T06:44:40.569Z,4.53
2018-06-01T06:47:08.082Z,3.93
2018-06-01T06:49:35.600Z,4.37
2018-06-01T06:52:03.098Z,4.40
2018-06-01T06:54:30.619Z,4.70
2018-06-01T06:56:58.150Z,4.57
2018-06-01T06:59:26.414Z,4.53
2018-06-01T07:01:53.939Z,4.50
2018-06-01T07:04:21.432Z,4.80
2018-06-01T07:06:48.948Z,4.03
2018-06-01T07:09:16.475Z,4.73
2018-06-01T07:11:44.741Z,5.00
2018-06-01T07:14:12.262Z,4.70
2018-06-01T07:16:39.755Z,4.80
2018-06-01T07:19:07.292Z,4.70
2018-06-01T07:21:34.790Z,5.20
2018-06-01T07:24:02.296Z,5.07
2018-06-01T07:26:29.816Z,4.57
2018-06-01T07:28:57.313Z,4.13
2018-06-01T07:31:24.835Z,5.10
2018-06-01T07:33:53.103Z,4.20
2018-06-01T07:36:21.400Z,4.70
2018-06-01T07:38:48.963Z,5.10
2018-06-01T07:41:16.431Z,4.57
2018-06-01T07:43:43.936Z,4.07
2018-06-01T07:46:11.442Z,4.33
2018-06-01T07:48:38.957Z,4.30
2018-06-01T07:51:06.450Z,4.43
2018-06-01T07:53:33.981Z,4.00
2018-06-01T07:56:01.488Z,4.50
2018-06-01T07:58:29.007Z,4.73
2018-06-01T08:00:56.510Z,4.67
2018-06-01T08:03:24.001Z,4.27
2018-06-01T08:05:51.742Z,4.37
2018-06-01T08:08:19.249Z,4.50
2018-06-01T08:10:47.536Z,4.47
2018-06-01T08:13:15.800Z,4.70
2018-06-01T08:15:43.330Z,4.17
2018-06-01T08:18:10.922Z,4.60
2018-06-01T08:20:39.230Z,4.97
2018-06-01T08:23:06.736Z,4.13
2018-06-01T08:25:34.251Z,4.67
2018-06-01T08:28:01.991Z,4.30
2018-06-01T08:30:30.267Z,5.07
2018-06-01T08:32:58.578Z,4.13
2018-06-01T08:35:26.083Z,4.03
2018-06-01T08:37:53.612Z,4.13
2018-06-01T08:40:21.115Z,4.00
2018-06-01T08:42:49.390Z,4.70
2018-06-01T08:45:16.911Z,4.90
2018-06-01T08:47:44.411Z,4.10
2018-06-01T08:50:11.940Z,4.47
2018-06-01T08:52:39.447Z,4.23
2018-06-01T08:55:07.740Z,3.53
2018-06-01T08:57:35.235Z,3.87
2018-06-01T09:00:02.756Z,3.80
2018-06-01T09:02:31.010Z,3.83
2018-06-01T09:04:58.509Z,4.60
2018-06-01T09:07:26.047Z,4.40
2018-06-01T09:09:53.545Z,4.20
2018-06-01T09:12:21.063Z,4.00
2018-06-01T09:14:49.323Z,3.90
2018-06-01T09:17:16.831Z,4.27
2018-06-01T09:19:44.332Z,4.30
2018-06-01T09:22:11.884Z,4.03
2018-06-01T09:24:39.371Z,4.27
2018-06-01T09:27:07.646Z,3.80
2018-06-01T09:29:35.945Z,4.23
2018-06-01T09:32:03.447Z,4.73
2018-06-01T09:34:30.979Z,3.47
2018-06-01T09:36:58.466Z,4.17
2018-06-01T09:39:26.011Z,4.30
2018-06-01T09:41:53.507Z,3.40
2018-06-01T09:44:21.003Z,4.23
2018-06-01T09:46:48.549Z,4.70
2018-06-01T09:49:16.814Z,3.83
2018-06-01T09:51:44.327Z,3.83
2018-06-01T09:54:11.823Z,4.13
2018-06-01T09:56:39.355Z,3.73
2018-06-01T09:59:06.855Z,4.50
2018-06-01T10:01:35.116Z,5.30
2018-06-01T10:04:02.635Z,3.40
2018-06-01T10:06:30.136Z,4.10
2018-06-01T10:08:58.433Z,3.77
2018-06-01T10:11:26.690Z,4.00
2018-06-01T10:13:54.223Z,3.90
2018-06-01T10:16:21.710Z,4.33
2018-06-01T10:18:49.238Z,3.97
2018-06-01T10:21:16.737Z,4.57
2018-06-01T10:23:45.001Z,4.70
2018-06-01T10:26:13.295Z,4.30
2018-06-01T10:28:41.550Z,3.57
2018-06-01T10:31:09.071Z,4.00
2018-06-01T10:33:36.558Z,4.37
2018-06-01T10:36:04.096Z,3.83
2018-06-01T10:38:31.585Z,3.90
2018-06-01T10:40:59.083Z,3.87
2018-06-01T10:43:27.365Z,4.00
2018-06-01T10:45:54.870Z,5.07
2018-06-01T10:48:22.379Z,3.70
2018-06-01T10:50:50.646Z,3.70
2018-06-01T10:53:18.911Z,4.40
2018-06-01T10:55:46.423Z,4.00
2018-06-01T10:58:13.921Z,3.87
2018-06-01T11:00:41.444Z,3.87
2018-06-01T11:03:08.940Z,4.20
2018-06-01T11:05:36.452Z,4.10
2018-06-01T11:08:03.946Z,3.67
2018-06-01T11:10:31.443Z,3.70
2018-06-01T11:12:59.726Z,3.50
2018-06-01T11:15:27.981Z,3.30
2018-06-01T11:17:55.504Z,3.90
2018-06-01T11:20:23.213Z,4.03
2018-06-01T11:22:51.495Z,3.47
2018-06-01T11:25:19.778Z,4.37
2018-06-01T11:27:48.050Z,3.70
2018-06-01T11:30:16.333Z,4.00
2018-06-01T11:32:44.705Z,4.30
2018-06-01T11:35:12.222Z,4.17
2018-06-01T11:37:39.752Z,3.67
2018-06-01T11:40:07.254Z,3.63
2018-06-01T11:42:34.770Z,3.33
2018-06-01T11:45:02.286Z,3.57
2018-06-01T11:47:29.787Z,3.90
2018-06-01T11:49:57.310Z,3.60
2018-06-01T11:52:24.809Z,3.20
2018-06-01T11:54:52.325Z,3.47
2018-06-01T11:57:19.829Z,3.67
2018-06-01T11:59:47.329Z,3.43
2018-06-01T12:02:14.839Z,4.03
2018-06-01T12:04:42.373Z,3.70
2018-06-01T12:07:10.709Z,3.20
2018-06-01T12:09:38.203Z,3.30
2018-06-01T12:12:06.465Z,3.50
2018-06-01T12:14:33.989Z,3.50
2018-06-01T12:17:01.478Z,2.90
2018-06-01T12:19:29.006Z,3.07
2018-06-01T12:21:56.511Z,2.90
2018-06-01T12:24:24.047Z,3.23
2018-06-01T12:26:51.556Z,3.20
2018-06-01T12:29:19.829Z,2.67
2018-06-01T12:31:48.126Z,3.70
2018-06-01T12:34:15.617Z,2.83
2018-06-01T12:36:43.135Z,2.90
2018-06-01T12:39:10.666Z,3.10
2018-06-01T12:41:38.205Z,2.93
2018-06-01T12:44:05.687Z,3.07
2018-06-01T12:46:33.198Z,3.10
2018-06-01T12:49:00.791Z,3.70
2018-06-01T12:51:28.286Z,3.23
2018-06-01T12:53:56.794Z,3.73
2018-06-01T12:56:24.292Z,3.27
2018-06-01T12:58:51.825Z,2.80
2018-06-01T13:01:19.310Z,3.60
2018-06-01T13:03:46.823Z,3.37
2018-06-01T13:06:14.313Z,3.20
2018-06-01T13:08:41.803Z,3.30
2018-06-01T13:11:09.338Z,2.80
2018-06-01T13:13:36.830Z,2.80
2018-06-01T13:16:04.349Z,3.17
2018-06-01T13:18:31.850Z,3.10
2018-06-01T13:21:00.149Z,3.20
2018-06-01T13:23:27.637Z,3.20
2018-06-01T13:25:55.167Z,3.03
2018-06-01T13:28:22.659Z,3.13
2018-06-01T13:30:50.153Z,3.43
2018-06-01T13:33:17.666Z,3.43
2018-06-01T13:35:45.157Z,3.60
2018-06-01T13:38:12.690Z,3.00
2018-06-01T13:40:40.191Z,3.70
2018-06-01T13:43:07.703Z,3.17
2018-06-01T13:45:35.232Z,3.33
2018-06-01T13:48:03.494Z,3.27
2018-06-01T13:50:31.003Z,3.10
2018-06-01T13:52:58.499Z,3.00
2018-06-01T13:55:26.020Z,2.70
2018-06-01T13:57:53.576Z,3.37
2018-06-01T14:00:21.101Z,2.67
2018-06-01T14:02:49.373Z,2.50
2018-06-01T14:05:17.666Z,2.40
2018-06-01T14:07:45.976Z,3.20
2018-06-01T14:10:13.486Z,3.10
2018-06-01T14:12:41.003Z,3.03
2018-06-01T14:15:08.526Z,2.57
2018-06-01T14:17:36.802Z,3.13
2018-06-01T14:20:04.295Z,3.43
2018-06-01T14:22:31.811Z,3.27
2018-06-01T14:25:00.090Z,3.07
2018-06-01T14:27:28.357Z,3.10
2018-06-01T14:29:55.879Z,2.90
2018-06-01T14:32:23.372Z,3.33
2018-06-01T14:34:50.903Z,3.40
2018-06-01T14:37:18.408Z,3.27
2018-06-01T14:39:46.692Z,3.53
2018-06-01T14:42:14.955Z,2.90
2018-06-01T14:44:42.470Z,3.20
2018-06-01T14:47:10.054Z,2.80
2018-06-01T14:49:38.241Z,3.57
2018-06-01T14:52:05.758Z,3.63
2018-06-01T14:54:33.300Z,4.40
2018-06-01T14:57:01.557Z,4.93
2018-06-01T14:59:29.817Z,4.50
2018-06-01T15:01:57.338Z,4.57
2018-06-01T15:04:25.084Z,4.33
2018-06-01T15:06:52.586Z,4.27
2018-06-01T15:09:20.102Z,4.27
2018-06-01T15:11:47.598Z,3.90
2018-06-01T15:14:15.111Z,4.07
2018-06-01T15:16:42.612Z,4.03
2018-06-01T15:19:10.125Z,4.37
2018-06-01T15:21:37.623Z,4.33
2018-06-01T15:24:05.148Z,4.70
2018-06-01T15:26:32.654Z,4.43
2018-06-01T15:29:00.153Z,4.13
2018-06-01T15:31:28.430Z,4.10
2018-06-01T15:33:55.992Z,4.00
2018-06-01T15:36:23.478Z,4.30
2018-06-01T15:38:51.001Z,4.20
2018-06-01T15:41:19.286Z,4.67
2018-06-01T15:43:46.790Z,4.10
2018-06-01T15:46:16.051Z,4.33
2018-06-01T15:48:43.857Z,4.30
2018-06-01T15:51:11.366Z,3.90
2018-06-01T15:53:39.689Z,4.13
2018-06-01T15:56:07.198Z,4.03
2018-06-01T15:58:35.478Z,4.03
2018-06-01T16:01:03.742Z,3.73
2018-06-01T16:03:31.255Z,4.17
2018-06-01T16:05:58.747Z,4.10
2018-06-01T16:08:26.247Z,3.80
2018-06-01T16:10:53.775Z,4.20
2018-06-01T16:13:21.288Z,3.80
2018-06-01T16:15:48.808Z,4.00
2018-06-01T16:18:17.094Z,3.70
2018-06-01T16:20:45.379Z,4.40
2018-06-01T16:23:13.643Z,3.53
2018-06-01T16:25:41.942Z,3.70
2018-06-01T16:28:09.494Z,3.63
2018-06-01T16:30:37.034Z,3.00
2018-06-01T16:33:04.543Z,3.80
2018-06-01T16:35:32.029Z,3.27
2018-06-01T16:37:59.566Z,3.90
2018-06-01T16:40:27.065Z,3.50
2018-06-01T16:42:55.355Z,3.23
2018-06-01T16:45:23.627Z,3.40
2018-06-01T16:47:51.931Z,3.30
2018-06-01T16:50:19.454Z,3.60
2018-06-01T16:52:46.955Z,4.47
2018-06-01T16:55:14.475Z,4.17
2018-06-01T16:57:41.975Z,3.70
2018-06-01T17:00:09.492Z,4.30
2018-06-01T17:02:36.990Z,3.83
2018-06-01T17:05:04.526Z,4.20
2018-06-01T17:07:32.027Z,3.90
2018-06-01T17:09:59.527Z,4.60
2018-06-01T17:12:27.042Z,3.73
2018-06-01T17:14:55.312Z,4.50
2018-06-01T17:17:22.834Z,3.47
2018-06-01T17:19:50.326Z,3.50
2018-06-01T17:22:17.842Z,4.87
2018-06-01T17:24:45.343Z,3.60
2018-06-01T17:27:12.838Z,3.67
2018-06-01T17:29:40.353Z,3.60
2018-06-01T17:32:08.616Z,4.37
2018-06-01T17:34:36.908Z,3.30
2018-06-01T17:37:04.406Z,3.20
2018-06-01T17:39:31.910Z,4.20
2018-06-01T17:42:00.175Z,3.50
2018-06-01T17:44:27.688Z,3.87
2018-06-01T17:46:55.180Z,3.20
2018-06-01T17:49:22.683Z,3.50
2018-06-01T17:54:23.105Z,3.90
2018-06-01T17:56:51.380Z,3.60
2018-06-01T17:59:18.874Z,3.60
2018-06-01T18:01:46.415Z,3.93
2018-06-01T18:04:14.673Z,4.03
2018-06-01T18:06:42.223Z,4.10
2018-06-01T18:09:09.702Z,4.20
2018-06-01T18:11:37.965Z,3.30
2018-06-01T18:16:39.141Z,4.30
2018-06-01T18:19:07.419Z,3.20
2018-06-01T18:21:35.752Z,3.77
2018-06-01T18:24:03.293Z,3.50
2018-06-01T18:26:30.793Z,3.90
2018-06-01T18:28:58.286Z,3.80
2018-06-01T18:31:26.561Z,3.40
2018-06-01T18:33:54.809Z,3.67
2018-06-01T18:36:22.329Z,3.63
2018-06-01T18:38:49.826Z,3.47
2018-06-01T18:41:17.346Z,3.70
2018-06-01T18:43:44.856Z,3.47
2018-06-01T18:46:12.372Z,3.70
2018-06-01T18:48:39.889Z,3.50
2018-06-01T18:51:08.165Z,3.10
2018-06-01T18:53:36.454Z,3.03
2018-06-01T18:56:04.740Z,3.40
2018-06-01T18:58:32.292Z,2.90
2018-06-01T19:00:59.875Z,3.10
2018-06-01T19:03:27.386Z,3.03
2018-06-01T19:05:55.074Z,2.93
2018-06-01T19:08:23.347Z,2.90
2018-06-01T19:10:51.849Z,2.70
2018-06-01T19:13:19.361Z,2.60
2018-06-01T19:15:46.879Z,2.57
2018-06-01T19:18:14.387Z,2.53
2018-06-01T19:20:41.906Z,2.47
2018-06-01T19:23:09.413Z,2.40
2018-06-01T19:25:36.902Z,2.33
2018-06-01T19:28:04.419Z,2.73
2018-06-01T19:30:31.928Z,2.90
2018-06-01T19:32:59.465Z,2.67
2018-06-01T19:35:27.729Z,2.53
2018-06-01T19:37:55.248Z,2.90
2018-06-01T19:40:23.518Z,2.53
2018-06-01T19:42:51.003Z,2.60
2018-06-01T19:45:18.518Z,2.60
2018-06-01T19:47:46.014Z,2.83
2018-06-01T19:50:13.530Z,2.90
2018-06-01T19:52:41.805Z,3.40
2018-06-01T19:55:09.319Z,2.63
2018-06-01T19:57:36.813Z,2.77
2018-06-01T20:00:04.339Z,2.70
2018-06-01T20:02:31.839Z,3.63
2018-06-01T20:04:59.338Z,2.40
2018-06-01T20:07:26.858Z,2.73
2018-06-01T20:09:54.347Z,2.53
2018-06-01T20:12:21.865Z,2.50
2018-06-01T20:14:50.130Z,2.83
2018-06-01T20:17:18.391Z,2.80
2018-06-01T20:19:45.908Z,2.63
2018-06-01T20:22:13.415Z,2.90
2018-06-01T20:24:40.934Z,3.00
2018-06-01T20:27:08.425Z,3.03
2018-06-01T20:29:35.957Z,2.90
2018-06-01T20:32:03.461Z,2.80
2018-06-01T20:34:30.955Z,3.00
2018-06-01T20:36:58.482Z,3.00
2018-06-01T20:39:26.981Z,3.20
2018-06-01T20:41:54.522Z,2.70
2018-06-01T20:44:22.237Z,2.80
2018-06-01T20:46:49.738Z,3.17
2018-06-01T20:49:17.254Z,3.80
2018-06-01T20:51:44.755Z,3.00
2018-06-01T20:54:12.279Z,2.90
2018-06-01T20:56:39.818Z,2.87
2018-06-01T20:59:08.086Z,2.87
2018-06-01T21:01:35.598Z,3.30
2018-06-01T21:04:03.098Z,2.83
2018-06-01T21:06:31.397Z,2.90
2018-06-01T21:08:58.891Z,2.87
2018-06-01T21:11:26.421Z,2.70
2018-06-01T21:13:53.925Z,3.30
2018-06-01T21:16:21.459Z,3.07
2018-06-01T21:18:48.959Z,3.27
2018-06-01T21:21:17.236Z,3.00
2018-06-01T21:23:45.519Z,3.30
2018-06-01T21:26:13.807Z,3.40
2018-06-01T21:28:42.099Z,3.50
2018-06-01T21:31:09.611Z,2.80
2018-06-01T21:33:37.139Z,3.00
2018-06-01T21:36:04.652Z,3.83
2018-06-01T21:38:32.948Z,3.20
2018-06-01T21:41:00.450Z,3.27
2018-06-01T21:43:27.974Z,3.77
2018-06-01T21:45:55.508Z,3.20
2018-06-01T21:48:23.768Z,3.43
2018-06-01T21:50:51.301Z,3.37
2018-06-01T21:53:18.806Z,3.37
2018-06-01T21:55:47.066Z,3.63
2018-06-01T21:58:14.593Z,3.30
2018-06-01T22:00:42.084Z,3.10
2018-06-01T22:03:09.610Z,3.40
2018-06-01T22:05:37.114Z,2.80
2018-06-01T22:08:05.402Z,3.27
2018-06-01T22:10:33.671Z,3.10
2018-06-01T22:13:01.958Z,3.50
2018-06-01T22:15:30.244Z,3.13
2018-06-01T22:17:57.750Z,3.60
2018-06-01T22:20:25.268Z,3.30
2018-06-01T22:22:52.767Z,3.90
2018-06-01T22:25:20.266Z,3.90
2018-06-01T22:27:48.563Z,3.03
2018-06-01T22:30:16.061Z,3.20
2018-06-01T22:32:43.600Z,3.73
2018-06-01T22:35:11.105Z,3.43
2018-06-01T22:37:38.626Z,3.60
2018-06-01T22:40:06.131Z,3.40
2018-06-01T22:42:33.638Z,3.07
2018-06-01T22:45:01.218Z,2.93
2018-06-01T22:47:28.946Z,3.53
2018-06-01T22:49:56.473Z,3.50
2018-06-01T22:52:24.749Z,3.67
2018-06-01T22:54:52.285Z,3.53
2018-06-01T22:57:19.786Z,3.83
2018-06-01T22:59:47.326Z,3.97
2018-06-01T23:02:14.862Z,3.73
2018-06-01T23:04:42.371Z,3.20
2018-06-01T23:07:09.890Z,3.63
2018-06-01T23:09:37.389Z,3.70
2018-06-01T23:12:05.662Z,3.93
2018-06-01T23:14:34.002Z,3.63
2018-06-01T23:17:02.227Z,3.90
2018-06-01T23:19:29.743Z,3.90
2018-06-01T23:21:57.258Z,4.50
2018-06-01T23:24:25.543Z,3.57
2018-06-01T23:26:53.040Z,3.47
2018-06-01T23:29:20.565Z,3.50
2018-06-01T23:31:48.071Z,3.47
2018-06-01T23:34:15.579Z,3.70
2018-06-01T23:36:43.099Z,4.27
2018-06-01T23:39:11.362Z,3.40
2018-06-01T23:41:38.873Z,3.87
2018-06-01T23:44:06.375Z,3.70
2018-06-01T23:46:33.901Z,3.83
2018-06-01T23:49:01.398Z,3.60
2018-06-01T23:51:28.929Z,3.67
2018-06-01T23:53:56.414Z,3.50
2018-06-01T23:56:23.940Z,3.23
2018-06-01T23:58:51.451Z,4.17
